Allensburg, Ohio
Current Conditions -  °F | °C
As of 12:54 PM on Saturday 22 Nov 2014 (Local Time) from KILN Reporting Station
Overcast Overcast  
Wind Chill: 43°   Ceiling: 10000
Heat Index: 48°   Visibility: 10mi
Dew Point: 34°   Wind: 10mph
Humidity: 58%   Direction: 190°S
Pressure: 30.17"   Gusts: NA
Location:  39.1546°N, 83.569°W
Report Text: KILN 221754Z AUTO 19009KT 10SM OVC100 09/01 A3017 RMK AO2 SLP240 60003 T00890011 10089 20006 58030
Loading
Personal Weather Stations






























Interactive Weather Map New forecast layout! Learn more

10-Day Weather Forecast

Advertisements
Track Severe Weather on mobile